Allegany Spring, Virginia
Current Conditions -  °F | °C
As of 4:55 AM on Saturday 22 Nov 2014 (Local Time) from KBCB Reporting Station
Clear Clear  
Wind Chill: 18°   Ceiling: Unl
Heat Index: 18°   Visibility: 10mi
Dew Point: 16°   Wind: 0mph
Humidity: 93%   Direction: NA
Pressure: 30.46"   Gusts: NA
Location:  37.1336°N, 80.2545°W
Report Text: KBCB 220955Z AUTO 00000KT 10SM CLR M08/M09 A3046 RMK AO2
Loading
Personal Weather Stations






























Interactive Weather Map New forecast layout! Learn more

10-Day Weather Forecast

Advertisements
Track Severe Weather on mobile